createdAt,value
2019-05-22T00:01:44.401Z,98.60
2019-05-22T00:04:32.043Z,98.60
2019-05-22T00:07:01.537Z,98.40
2019-05-22T00:09:30.749Z,98.70
2019-05-22T00:11:59.809Z,98.70
2019-05-22T00:14:27.890Z,98.80
2019-05-22T00:16:57.035Z,98.80
2019-05-22T00:19:24.789Z,98.50
2019-05-22T00:21:53.993Z,98.50
2019-05-22T00:24:23.158Z,98.50
2019-05-22T00:26:51.297Z,98.50
2019-05-22T00:29:19.610Z,98.50
2019-05-22T00:31:47.944Z,98.30
2019-05-22T00:34:17.599Z,98.50
2019-05-22T00:36:46.630Z,98.60
2019-05-22T00:39:14.269Z,98.80
2019-05-22T00:41:42.772Z,98.80
2019-05-22T00:44:10.705Z,98.70
2019-05-22T00:46:40.020Z,98.60
2019-05-22T00:49:09.796Z,98.60
2019-05-22T00:51:41.896Z,98.70
2019-05-22T00:54:23.373Z,98.70
2019-05-22T00:56:55.286Z,98.70
2019-05-22T00:59:33.800Z,98.50
2019-05-22T01:02:02.530Z,98.50
2019-05-22T01:04:31.736Z,98.70
2019-05-22T01:07:00.848Z,98.60
2019-05-22T01:09:44.478Z,98.50
2019-05-22T01:12:17.229Z,98.40
2019-05-22T01:14:45.268Z,98.50
2019-05-22T01:17:14.449Z,98.50
2019-05-22T01:19:44.259Z,98.50
2019-05-22T01:22:13.433Z,98.50
2019-05-22T01:24:41.516Z,98.70
2019-05-22T01:27:09.374Z,98.60
2019-05-22T01:29:38.876Z,99.10
2019-05-22T01:32:20.656Z,98.80
2019-05-22T01:34:48.560Z,99.00
2019-05-22T01:37:17.741Z,98.70
2019-05-22T01:39:51.385Z,98.70
2019-05-22T01:42:20.820Z,98.70
2019-05-22T01:45:01.202Z,98.60
2019-05-22T01:47:20.322Z,98.70
2019-05-22T01:49:49.606Z,98.50
2019-05-22T01:52:17.210Z,98.30
2019-05-22T01:54:45.136Z,98.60
2019-05-22T01:57:12.672Z,98.70
2019-05-22T01:59:41.912Z,98.80
2019-05-22T02:02:11.089Z,98.90
2019-05-22T02:04:39.210Z,99.30
2019-05-22T02:07:08.385Z,98.80
2019-05-22T02:09:37.402Z,98.60
2019-05-22T02:12:07.180Z,98.70
2019-05-22T02:14:34.765Z,98.60
2019-05-22T02:17:03.942Z,98.70
2019-05-22T02:19:31.478Z,98.60
2019-05-22T02:21:59.814Z,98.60
2019-05-22T02:24:28.993Z,98.70
2019-05-22T02:26:56.796Z,98.70
2019-05-22T02:29:26.076Z,98.70
2019-05-22T02:31:55.755Z,98.80
2019-05-22T02:34:23.506Z,98.80
2019-05-22T02:36:51.549Z,98.80
2019-05-22T02:39:23.810Z,98.80
2019-05-22T02:41:53.947Z,98.60
2019-05-22T02:44:22.725Z,98.60
2019-05-22T02:46:50.883Z,98.40
2019-05-22T02:49:18.473Z,98.80
2019-05-22T02:51:47.705Z,98.90
2019-05-22T02:54:15.696Z,99.00
2019-05-22T02:56:43.440Z,99.30
2019-05-22T02:59:12.634Z,99.00
2019-05-22T03:01:40.373Z,99.20
2019-05-22T03:04:09.545Z,99.20
2019-05-22T03:06:37.302Z,99.20
2019-05-22T03:09:10.631Z,99.00
2019-05-22T03:11:40.833Z,99.00
2019-05-22T03:14:09.116Z,98.90
2019-05-22T03:16:51.370Z,98.70
2019-05-22T03:19:28.173Z,98.70
2019-05-22T03:21:55.736Z,98.80
2019-05-22T03:24:23.277Z,98.70
2019-05-22T03:26:51.413Z,98.80
2019-05-22T03:29:21.355Z,98.40
2019-05-22T03:31:48.985Z,98.80
2019-05-22T03:34:17.250Z,98.60
2019-05-22T03:36:45.606Z,98.60
2019-05-22T03:39:14.065Z,98.60
2019-05-22T03:41:41.629Z,98.70
2019-05-22T03:44:10.234Z,98.50
2019-05-22T03:46:43.632Z,98.50
2019-05-22T03:49:28.125Z,98.50
2019-05-22T03:51:43.957Z,98.50
2019-05-22T03:54:12.661Z,98.90
2019-05-22T03:56:40.973Z,98.70
2019-05-22T03:59:08.702Z,98.60
2019-05-22T04:01:36.461Z,98.60
2019-05-22T04:04:05.943Z,98.60
2019-05-22T04:06:33.942Z,98.70
2019-05-22T04:09:04.773Z,98.60
2019-05-22T04:11:33.937Z,98.60
2019-05-22T04:14:01.987Z,98.50
2019-05-22T04:16:29.698Z,98.70
2019-05-22T04:18:57.741Z,98.70
2019-05-22T04:21:25.537Z,98.70
2019-05-22T04:23:53.181Z,98.60
2019-05-22T04:26:21.482Z,98.50
2019-05-22T04:28:50.916Z,98.50
2019-05-22T04:31:18.496Z,98.60
2019-05-22T04:33:46.225Z,98.50
2019-05-22T04:36:14.903Z,98.40
2019-05-22T04:38:42.469Z,98.20
2019-05-22T04:41:10.273Z,98.20
2019-05-22T04:43:37.852Z,98.20
2019-05-22T04:46:06.122Z,98.10
2019-05-22T04:48:34.967Z,98.50
2019-05-22T04:51:19.734Z,98.60
2019-05-22T04:53:47.293Z,98.60
2019-05-22T04:56:14.839Z,98.50
2019-05-22T04:58:42.401Z,98.60
2019-05-22T05:01:11.125Z,98.50
2019-05-22T05:03:38.853Z,98.60
2019-05-22T05:06:07.068Z,98.70
2019-05-22T05:08:35.118Z,98.60
2019-05-22T05:11:03.749Z,98.60
2019-05-22T05:13:31.657Z,98.70
2019-05-22T05:15:59.193Z,98.80
2019-05-22T05:18:27.357Z,98.70
2019-05-22T05:20:54.896Z,98.70
2019-05-22T05:23:22.432Z,98.60
2019-05-22T05:25:49.996Z,98.60
2019-05-22T05:28:18.093Z,98.50
2019-05-22T05:30:45.658Z,98.50
2019-05-22T05:33:13.193Z,98.60
2019-05-22T05:35:41.028Z,98.70
2019-05-22T05:38:08.738Z,98.80
2019-05-22T05:40:39.630Z,98.70
2019-05-22T05:43:07.584Z,98.60
2019-05-22T05:45:35.150Z,98.60
2019-05-22T05:48:06.686Z,98.10
2019-05-22T05:50:39.748Z,98.10
2019-05-22T05:53:05.831Z,97.90
2019-05-22T05:55:40.905Z,97.80
2019-05-22T05:58:10.077Z,98.00
2019-05-22T06:00:39.278Z,97.70
2019-05-22T06:03:17.429Z,97.80
2019-05-22T06:05:45.281Z,98.40
2019-05-22T06:08:13.180Z,98.20
2019-05-22T06:10:42.755Z,97.50
2019-05-22T06:13:11.640Z,97.50
2019-05-22T06:15:47.565Z,97.00
2019-05-22T06:18:17.496Z,97.20
2019-05-22T06:21:02.472Z,96.40
2019-05-22T06:23:20.537Z,96.50
2019-05-22T06:25:48.096Z,96.80
2019-05-22T06:28:16.106Z,97.00
2019-05-22T06:30:44.569Z,97.20
2019-05-22T06:33:25.781Z,96.70
2019-05-22T06:35:53.520Z,95.80
2019-05-22T06:38:25.745Z,95.50
2019-05-22T06:40:53.312Z,95.10
2019-05-22T06:43:23.657Z,95.90
2019-05-22T06:45:51.731Z,95.90
2019-05-22T06:48:19.267Z,96.00
2019-05-22T06:50:49.302Z,96.30
2019-05-22T06:53:16.257Z,96.70
2019-05-22T06:55:43.913Z,96.30
2019-05-22T06:58:11.453Z,95.50
2019-05-22T07:00:39.025Z,95.70
2019-05-22T07:03:06.632Z,95.20
2019-05-22T07:05:34.165Z,95.90
2019-05-22T07:08:02.628Z,95.70
2019-05-22T07:10:30.794Z,94.90
2019-05-22T07:12:58.826Z,95.30
2019-05-22T07:15:27.250Z,95.10
2019-05-22T07:17:55.197Z,94.80
2019-05-22T07:20:23.813Z,95.20
2019-05-22T07:22:51.954Z,94.30
2019-05-22T07:25:20.021Z,94.60
2019-05-22T07:27:47.589Z,93.70
2019-05-22T07:30:15.393Z,94.10
2019-05-22T07:32:43.080Z,94.40
2019-05-22T07:35:10.708Z,95.10
2019-05-22T07:37:41.814Z,94.90
2019-05-22T07:40:09.716Z,94.10
2019-05-22T07:42:37.663Z,93.50
2019-05-22T07:45:05.397Z,92.60
2019-05-22T07:47:33.013Z,93.30
2019-05-22T07:50:00.548Z,92.90
2019-05-22T07:52:28.121Z,91.70
2019-05-22T07:54:55.825Z,91.10
2019-05-22T07:57:23.659Z,90.00
2019-05-22T07:59:51.463Z,90.20
2019-05-22T08:02:20.705Z,91.40
2019-05-22T08:04:48.971Z,89.60
2019-05-22T08:07:18.193Z,90.10
2019-05-22T08:09:46.042Z,85.90
2019-05-22T08:12:13.969Z,80.60
2019-05-22T08:14:41.577Z,89.50
2019-05-22T08:17:09.145Z,94.40
2019-05-22T08:19:36.682Z,96.00
2019-05-22T08:22:07.145Z,93.60
2019-05-22T08:24:33.856Z,90.40
2019-05-22T08:27:01.425Z,86.20
2019-05-22T08:29:28.991Z,84.70
2019-05-22T08:31:56.646Z,73.80
2019-05-22T08:34:24.706Z,71.50
2019-05-22T08:36:52.274Z,69.50
2019-05-22T08:39:20.276Z,84.40
2019-05-22T08:41:48.221Z,84.80
2019-05-22T08:44:17.783Z,85.10
2019-05-22T08:46:45.714Z,77.40
2019-05-22T08:49:13.647Z,75.50
2019-05-22T08:51:41.182Z,74.40
2019-05-22T08:54:08.748Z,79.50
2019-05-22T08:56:37.234Z,76.30
2019-05-22T08:59:18.824Z,77.80
2019-05-22T09:01:34.053Z,80.40
2019-05-22T09:04:01.895Z,79.20
2019-05-22T09:06:29.509Z,82.40
2019-05-22T09:08:57.079Z,83.70
2019-05-22T09:11:24.945Z,83.20
2019-05-22T09:13:52.513Z,78.80
2019-05-22T09:16:20.066Z,79.10
2019-05-22T09:18:48.097Z,76.80
2019-05-22T09:21:16.381Z,77.90
2019-05-22T09:23:44.554Z,80.00
2019-05-22T09:26:12.595Z,79.50
2019-05-22T09:28:40.238Z,80.30
2019-05-22T09:31:07.782Z,78.80
2019-05-22T09:33:35.601Z,76.30
2019-05-22T09:36:03.418Z,77.00
2019-05-22T09:38:31.336Z,77.10
2019-05-22T09:40:59.441Z,79.00
2019-05-22T09:43:27.079Z,75.10
2019-05-22T09:45:54.614Z,78.00
2019-05-22T09:48:22.381Z,75.40
2019-05-22T09:50:50.285Z,73.40
2019-05-22T09:53:17.896Z,67.10
2019-05-22T09:55:47.373Z,67.80
2019-05-22T09:58:15.130Z,66.50
2019-05-22T10:00:42.668Z,67.80
2019-05-22T10:03:10.236Z,66.60
2019-05-22T10:05:37.914Z,62.50
2019-05-22T10:08:06.914Z,60.70
2019-05-22T10:10:34.921Z,59.50
2019-05-22T10:13:02.764Z,57.90
2019-05-22T10:15:30.971Z,58.60
2019-05-22T10:17:58.876Z,57.30
2019-05-22T10:20:26.589Z,55.70
2019-05-22T10:22:54.153Z,56.20
2019-05-22T10:25:21.859Z,59.00
2019-05-22T10:27:49.895Z,55.50
2019-05-22T10:30:19.168Z,58.30
2019-05-22T10:32:46.912Z,55.00
2019-05-22T10:35:14.707Z,54.20
2019-05-22T10:37:42.881Z,56.90
2019-05-22T10:40:10.485Z,58.30
2019-05-22T10:42:38.027Z,58.40
2019-05-22T10:45:05.964Z,61.10
2019-05-22T10:47:33.505Z,57.10
2019-05-22T10:50:01.075Z,58.50
2019-05-22T10:52:29.034Z,56.60
2019-05-22T10:54:56.862Z,58.60
2019-05-22T10:57:25.066Z,58.80
2019-05-22T10:59:52.626Z,58.60
2019-05-22T11:02:20.732Z,58.10
2019-05-22T11:04:48.301Z,58.50
2019-05-22T11:07:16.734Z,60.10
2019-05-22T11:09:44.324Z,57.50
2019-05-22T11:12:12.800Z,58.30
2019-05-22T11:14:40.641Z,58.90
2019-05-22T11:17:10.048Z,58.00
2019-05-22T11:19:37.849Z,59.20
2019-05-22T11:22:06.597Z,59.80
2019-05-22T11:24:34.156Z,62.40
2019-05-22T11:27:01.866Z,61.80
2019-05-22T11:29:29.602Z,62.40
2019-05-22T11:31:57.136Z,63.20
2019-05-22T11:34:24.707Z,65.70
2019-05-22T11:36:53.000Z,68.70
2019-05-22T11:39:38.000Z,65.20
2019-05-22T11:41:51.702Z,65.20
2019-05-22T11:44:19.265Z,65.70
2019-05-22T11:46:46.831Z,66.20
2019-05-22T11:49:14.394Z,68.40
2019-05-22T11:51:41.940Z,67.30
2019-05-22T11:54:10.021Z,63.50
2019-05-22T11:56:37.725Z,62.80
2019-05-22T11:59:05.760Z,66.50
2019-05-22T12:01:33.574Z,64.50
2019-05-22T12:04:01.135Z,64.40
2019-05-22T12:06:29.510Z,64.20
2019-05-22T12:08:57.293Z,65.30
2019-05-22T12:11:24.848Z,67.40
2019-05-22T12:13:52.444Z,65.10
2019-05-22T12:16:20.551Z,69.70
2019-05-22T12:18:48.116Z,64.70
2019-05-22T12:21:15.649Z,66.20
2019-05-22T12:23:43.304Z,66.40
2019-05-22T12:26:11.014Z,66.00
2019-05-22T12:28:38.957Z,66.90
2019-05-22T12:31:07.089Z,67.20
2019-05-22T12:33:34.876Z,66.60
2019-05-22T12:36:03.746Z,64.50
2019-05-22T12:38:31.774Z,63.70
2019-05-22T12:40:59.309Z,61.80
2019-05-22T12:43:27.509Z,62.80
2019-05-22T12:45:55.078Z,64.80
2019-05-22T12:48:22.617Z,64.80
2019-05-22T12:50:50.524Z,65.00
2019-05-22T12:53:18.771Z,64.30
2019-05-22T12:55:46.753Z,62.80
2019-05-22T12:58:14.532Z,62.20
2019-05-22T13:00:42.105Z,60.90
2019-05-22T13:03:09.631Z,59.10
2019-05-22T13:05:37.665Z,60.90
2019-05-22T13:08:05.274Z,59.70
2019-05-22T13:10:33.359Z,59.50
2019-05-22T13:13:00.913Z,60.30
2019-05-22T13:15:28.473Z,62.70
2019-05-22T13:17:56.567Z,58.90
2019-05-22T13:20:41.311Z,63.30
2019-05-22T13:22:55.622Z,61.20
2019-05-22T13:25:24.358Z,61.20
2019-05-22T13:27:52.261Z,59.20
2019-05-22T13:30:21.702Z,59.20
2019-05-22T13:32:49.585Z,58.30
2019-05-22T13:35:17.627Z,57.70
2019-05-22T13:37:45.158Z,56.00
2019-05-22T13:40:26.623Z,55.40
2019-05-22T13:42:42.156Z,54.40
2019-05-22T13:45:27.783Z,52.90
2019-05-22T13:47:41.295Z,52.60
2019-05-22T13:50:09.124Z,54.50
2019-05-22T13:52:38.066Z,52.90
2019-05-22T13:55:06.770Z,53.10
2019-05-22T13:57:34.377Z,53.80
2019-05-22T14:00:01.965Z,53.70
2019-05-22T14:02:29.533Z,55.00
2019-05-22T14:04:57.097Z,53.40
2019-05-22T14:07:24.654Z,53.40
2019-05-22T14:09:52.333Z,53.80
2019-05-22T14:12:19.942Z,51.70
2019-05-22T14:14:47.519Z,50.30
2019-05-22T14:17:15.040Z,50.60
2019-05-22T14:19:42.608Z,51.00
2019-05-22T14:22:10.313Z,52.10
2019-05-22T14:24:37.881Z,50.50
2019-05-22T14:27:05.726Z,50.80
2019-05-22T14:29:33.321Z,45.50
2019-05-22T14:32:01.034Z,49.90
2019-05-22T14:34:28.566Z,48.70
2019-05-22T14:36:56.131Z,51.30
2019-05-22T14:39:24.232Z,50.50
2019-05-22T14:41:51.797Z,51.50
2019-05-22T14:44:19.996Z,52.50
2019-05-22T14:46:47.560Z,49.40
2019-05-22T14:49:15.100Z,50.00
2019-05-22T14:51:43.243Z,50.10
2019-05-22T14:54:10.945Z,52.80
2019-05-22T14:56:38.793Z,54.10
2019-05-22T14:59:06.698Z,52.90
2019-05-22T15:01:34.428Z,53.40
2019-05-22T15:04:02.405Z,50.70
2019-05-22T15:06:30.437Z,52.60
2019-05-22T15:08:57.964Z,51.50
2019-05-22T15:11:25.846Z,49.30
2019-05-22T15:13:53.612Z,48.50
2019-05-22T15:16:21.252Z,51.40
2019-05-22T15:18:48.789Z,51.10
2019-05-22T15:21:17.101Z,52.10
2019-05-22T15:23:45.510Z,52.50
2019-05-22T15:26:13.056Z,51.00
2019-05-22T15:28:40.612Z,51.30
2019-05-22T15:31:08.185Z,51.00
2019-05-22T15:33:35.896Z,49.40
2019-05-22T15:36:06.823Z,50.70
2019-05-22T15:38:35.225Z,52.90
2019-05-22T15:41:04.431Z,48.30
2019-05-22T15:43:32.546Z,49.00
2019-05-22T15:46:00.105Z,49.60
2019-05-22T15:48:29.280Z,47.90
2019-05-22T15:50:58.618Z,48.50
2019-05-22T15:53:26.424Z,50.50
2019-05-22T15:55:54.235Z,52.30
2019-05-22T15:58:23.571Z,51.90
2019-05-22T16:00:52.982Z,54.10
2019-05-22T16:03:21.116Z,52.90
2019-05-22T16:05:49.017Z,52.00
2019-05-22T16:08:16.771Z,51.80
2019-05-22T16:10:45.180Z,50.90
2019-05-22T16:13:13.334Z,50.00
2019-05-22T16:15:41.824Z,47.90
2019-05-22T16:18:12.099Z,49.60
2019-05-22T16:20:39.932Z,50.90
2019-05-22T16:23:08.352Z,47.20
2019-05-22T16:25:36.157Z,47.10
2019-05-22T16:28:04.009Z,49.80
2019-05-22T16:30:31.716Z,50.60
2019-05-22T16:32:59.662Z,51.50
2019-05-22T16:35:27.769Z,52.50
2019-05-22T16:37:55.709Z,53.30
2019-05-22T16:40:23.808Z,53.60
2019-05-22T16:42:51.609Z,52.70
2019-05-22T16:45:19.193Z,52.40
2019-05-22T16:47:47.038Z,55.30
2019-05-22T16:50:14.793Z,55.00
2019-05-22T16:52:42.710Z,55.20
2019-05-22T16:55:11.621Z,54.30
2019-05-22T16:57:39.156Z,55.20
2019-05-22T17:00:07.398Z,55.10
2019-05-22T17:02:35.304Z,55.60
2019-05-22T17:05:03.462Z,55.30
2019-05-22T17:07:30.994Z,66.30
2019-05-22T17:09:58.560Z,69.40
2019-05-22T17:12:26.097Z,67.20
2019-05-22T17:14:53.664Z,68.80
2019-05-22T17:17:21.202Z,64.30
2019-05-22T17:19:48.845Z,66.20
2019-05-22T17:22:16.386Z,64.40
2019-05-22T17:24:44.607Z,64.20
2019-05-22T17:27:13.781Z,65.50
2019-05-22T17:29:42.428Z,62.50
2019-05-22T17:32:10.184Z,60.30
2019-05-22T17:34:38.478Z,62.20
2019-05-22T17:37:07.897Z,58.70
2019-05-22T17:39:36.404Z,58.60
2019-05-22T17:42:03.985Z,59.00
2019-05-22T17:44:31.898Z,59.70
2019-05-22T17:47:00.253Z,60.00
2019-05-22T17:49:27.951Z,60.80
2019-05-22T17:51:55.605Z,61.70
2019-05-22T17:54:23.438Z,62.30
2019-05-22T17:56:51.490Z,61.50
2019-05-22T17:59:19.292Z,62.20
2019-05-22T18:01:47.148Z,62.00
2019-05-22T18:04:14.678Z,60.80
2019-05-22T18:06:42.565Z,61.50
2019-05-22T18:09:10.272Z,63.40
2019-05-22T18:11:38.029Z,63.20
2019-05-22T18:14:05.833Z,63.60
2019-05-22T18:16:33.985Z,66.00
2019-05-22T18:19:01.772Z,65.90
2019-05-22T18:21:29.724Z,65.90
2019-05-22T18:23:57.547Z,67.80
2019-05-22T18:26:26.013Z,67.30
2019-05-22T18:28:53.733Z,67.30
2019-05-22T18:31:21.295Z,68.80
2019-05-22T18:33:48.831Z,70.30
2019-05-22T18:36:16.405Z,69.90
2019-05-22T18:38:44.221Z,69.50
2019-05-22T18:41:12.088Z,69.00
2019-05-22T18:43:40.073Z,70.50
2019-05-22T18:46:07.920Z,70.20
2019-05-22T18:48:36.240Z,69.90
2019-05-22T18:51:03.814Z,71.00
2019-05-22T18:53:31.350Z,70.70
2019-05-22T18:55:59.014Z,70.60
2019-05-22T18:58:26.608Z,71.70
2019-05-22T19:00:54.458Z,71.00
2019-05-22T19:03:22.161Z,71.30
2019-05-22T19:05:49.740Z,69.90
2019-05-22T19:08:17.278Z,69.80
2019-05-22T19:10:45.163Z,71.80
2019-05-22T19:13:14.652Z,69.80
2019-05-22T19:15:42.192Z,71.00
2019-05-22T19:18:10.116Z,72.00
2019-05-22T19:20:37.649Z,71.40
2019-05-22T19:23:06.629Z,71.20
2019-05-22T19:25:34.332Z,72.30
2019-05-22T19:28:01.917Z,71.70
2019-05-22T19:30:29.721Z,72.10
2019-05-22T19:32:57.295Z,71.30
2019-05-22T19:35:25.192Z,72.20
2019-05-22T19:37:53.582Z,73.40
2019-05-22T19:40:22.018Z,72.90
2019-05-22T19:42:49.657Z,72.90
2019-05-22T19:45:17.192Z,73.20
2019-05-22T19:47:46.404Z,74.00
2019-05-22T19:50:22.937Z,74.40
2019-05-22T19:52:43.281Z,74.70
2019-05-22T19:55:12.800Z,74.20
2019-05-22T19:57:40.810Z,75.70
2019-05-22T20:00:08.766Z,75.40
2019-05-22T20:02:36.799Z,75.40
2019-05-22T20:05:08.270Z,75.60
2019-05-22T20:07:35.857Z,76.00
2019-05-22T20:10:06.658Z,75.70
2019-05-22T20:12:34.249Z,76.10
2019-05-22T20:15:02.182Z,76.40
2019-05-22T20:17:29.885Z,77.00
2019-05-22T20:19:57.421Z,76.70
2019-05-22T20:22:25.909Z,77.50
2019-05-22T20:24:53.468Z,77.70
2019-05-22T20:27:21.576Z,76.70
2019-05-22T20:29:49.212Z,77.30
2019-05-22T20:32:16.821Z,77.20
2019-05-22T20:34:44.641Z,77.10
2019-05-22T20:37:12.249Z,77.00
2019-05-22T20:39:40.045Z,77.40
2019-05-22T20:42:09.052Z,77.60
2019-05-22T20:44:37.626Z,78.00
2019-05-22T20:47:06.797Z,78.00
2019-05-22T20:49:35.488Z,77.60
2019-05-22T20:52:04.669Z,77.90
2019-05-22T20:54:32.595Z,78.20
2019-05-22T20:57:00.613Z,78.00
2019-05-22T20:59:29.841Z,78.40
2019-05-22T21:01:58.220Z,78.30
2019-05-22T21:04:27.154Z,79.70
2019-05-22T21:07:00.027Z,78.40
2019-05-22T21:09:27.590Z,78.20
2019-05-22T21:11:55.192Z,79.20
2019-05-22T21:14:23.912Z,79.40
2019-05-22T21:16:52.113Z,78.40
2019-05-22T21:19:23.432Z,77.30
2019-05-22T21:21:49.164Z,79.00
2019-05-22T21:24:16.710Z,78.60
2019-05-22T21:26:44.846Z,79.00
2019-05-22T21:29:13.156Z,78.90
2019-05-22T21:31:41.495Z,78.60
2019-05-22T21:34:09.297Z,79.90
2019-05-22T21:36:37.347Z,80.10
2019-05-22T21:39:07.465Z,79.80
2019-05-22T21:41:35.024Z,81.80
2019-05-22T21:44:02.827Z,81.30
2019-05-22T21:46:30.388Z,80.50
2019-05-22T21:48:58.729Z,81.10
2019-05-22T21:51:26.765Z,82.60
2019-05-22T21:53:54.993Z,82.00
2019-05-22T21:56:22.572Z,81.60
2019-05-22T21:58:50.117Z,82.20
2019-05-22T22:01:25.421Z,82.30
2019-05-22T22:03:58.118Z,82.60
2019-05-22T22:06:25.957Z,83.70
2019-05-22T22:08:53.497Z,83.50
2019-05-22T22:11:22.642Z,81.90
2019-05-22T22:13:50.423Z,82.40
2019-05-22T22:16:18.670Z,83.50
2019-05-22T22:18:46.360Z,83.40
2019-05-22T22:21:16.082Z,83.90
2019-05-22T22:23:45.081Z,83.50
2019-05-22T22:26:25.309Z,83.30
2019-05-22T22:28:42.887Z,82.60
2019-05-22T22:31:12.117Z,83.40
2019-05-22T22:33:40.126Z,82.00
2019-05-22T22:36:08.273Z,82.10
2019-05-22T22:38:36.276Z,81.20
2019-05-22T22:41:04.513Z,81.30
2019-05-22T22:43:33.038Z,82.90
2019-05-22T22:46:08.791Z,82.50
2019-05-22T22:48:37.953Z,83.60
2019-05-22T22:51:07.461Z,84.60
2019-05-22T22:53:34.996Z,84.90
2019-05-22T22:56:04.441Z,84.50
2019-05-22T22:58:31.976Z,85.20
2019-05-22T23:01:00.117Z,86.20
2019-05-22T23:03:27.735Z,86.70
2019-05-22T23:05:55.921Z,87.60
2019-05-22T23:08:25.268Z,87.90
2019-05-22T23:10:53.170Z,87.60
2019-05-22T23:13:21.609Z,87.50
2019-05-22T23:15:50.781Z,87.30
2019-05-22T23:18:26.008Z,88.00
2019-05-22T23:20:53.356Z,88.30
2019-05-22T23:23:20.460Z,88.40
2019-05-22T23:25:48.341Z,89.50
2019-05-22T23:28:15.913Z,90.00
2019-05-22T23:30:43.445Z,89.40
2019-05-22T23:33:11.026Z,89.10
2019-05-22T23:35:39.629Z,88.90
2019-05-22T23:38:08.492Z,88.20
2019-05-22T23:40:36.298Z,88.00
2019-05-22T23:43:05.045Z,87.80
2019-05-22T23:45:33.563Z,88.10
2019-05-22T23:48:06.936Z,88.40
2019-05-22T23:50:35.224Z,88.50
2019-05-22T23:53:04.433Z,88.50
2019-05-22T23:55:32.447Z,89.00
2019-05-22T23:58:00.082Z,88.40
